EmailTwitter


Observations de surface / Québec / CYUL (71627)

Régions: Québec | Canada | États-Unis | Europe | France | UK | Elsewhere
Station
Affichage
Infos & localisation pour CYUL (71627) | Aide pour décoder les METARs

Observations prises le 2017-04-27 à 10H00 UTC à MONTREAL INTL A, QB (CYUL)

Obstacle(s) à la visibilité: brouillard.

Température: 11.0 Celsius

Point de rosée: 10.0 Celsius

Humidité relative: 94%

Facteur vent: 9.

Vents: Nord-est à 17 km/h ou 9 noeuds.

Pression au niveau moyen de la mer: 101.02 kilopascals.

Calage altimétrique: 101.02 kilopascals ou 29.83 pouces de mercure.

Visibilité horizontale: 0.25 milles terrestres ou 0.40 kilomètres.

Observation METAR:

CYUL 271000Z 04009KT 1/4SM R06L/3000FT/D R06R/4000FT/N FG VV001 11/10 A2983 RMK

FG8 SLP102=